Time;durP1;ratioP1;P1;durP2;ratioP2;P2;SDS_P1;SDS_P2;PMS_P1;PMS_P2;Temp;Humidity;BMP_temperature;BMP_pressure;BME280_temperature;BME280_humidity;BME280_pressure;Samples;Min_cycle;Max_cycle;Signal;HPM_P1;HPM_P2
2022/08/13 00:00:10;;;;;;;;;;;;;;;-142.75;100.00;76290.78;5071248;28;19927;-65
2022/08/13 00:02:36;;;;;;;;;;;;;;;-142.75;100.00;76294.72;5072936;28;19912;-67
2022/08/13 00:05:05;;;;;;;;;;;;;;;-142.75;100.00;76308.50;5054909;28;19920;-67
2022/08/13 00:07:30;;;;;;;;;;;;;;;-142.75;100.00;76300.63;5072477;28;20005;-64
2022/08/13 00:09:56;;;;;;;;;;;;;;;-142.75;100.00;76318.34;5072715;28;20389;-64
2022/08/13 00:15:18;;;;;;;;;;;;;;;-142.75;100.00;76340.00;5073022;28;20005;-67
2022/08/13 00:17:44;;;;;;;;;;;;;;;-142.75;100.00;76341.97;5072160;28;20293;-64
2022/08/13 00:20:11;;;;;;;;;;;;;;;-142.75;100.00;76341.97;5072931;28;20532;-64
2022/08/13 00:22:36;;;;;;;;;;;;;;;-142.75;100.00;76349.81;5072572;28;19920;-68
2022/08/13 00:25:04;;;;;;;;;;;;;;;-142.75;100.00;76365.56;5072542;28;19913;-64
2022/08/13 00:27:29;;;;;;;;;;;;;;;-142.75;100.00;76393.13;5072153;28;19918;-64
2022/08/13 00:29:56;;;;;;;;;;;;;;;-142.75;100.00;76395.09;5054505;28;20011;-66
2022/08/13 00:32:26;;;;;;;;;;;;;;;-142.75;100.00;76408.88;5072233;28;19916;-67
2022/08/13 00:34:51;;;;;;;;;;;;;;;-142.75;100.00;76408.88;5054436;28;19913;-67
2022/08/13 00:37:16;;;;;;;;;;;;;;;-142.75;100.00;76402.97;5072315;28;19920;-65
2022/08/13 00:39:41;;;;;;;;;;;;;;;-142.75;100.00;76404.94;5072807;28;19940;-65
2022/08/13 00:42:07;;;;;;;;;;;;;;;-142.75;100.00;76408.88;5072480;28;19917;-64
2022/08/13 00:44:32;;;;;;;;;;;;;;;-142.75;100.00;76412.81;5072396;28;19924;-66
2022/08/13 00:49:41;;;;;;;;;;;;;;;-142.75;100.00;76428.56;5072352;28;19936;-64
2022/08/13 00:52:10;;;;;;;;;;;;;;;-142.75;100.00;76428.56;5072432;28;19916;-65
2022/08/13 00:54:35;;;;;;;;;;;;;;;-142.75;100.00;76446.28;5072228;28;20396;-65
2022/08/13 00:57:06;;;;;;;;;;;;;;;-142.75;100.00;76454.16;5071843;28;19963;-66
2022/08/13 00:59:32;;;;;;;;;;;;;;;-142.75;100.00;76471.88;5070228;28;19974;-65
2022/08/13 01:01:57;;;;;;;;;;;;;;;-142.75;100.00;76467.94;5072099;28;19997;-65
2022/08/13 01:04:23;;;;;;;;;;;;;;;-142.75;100.00;76458.09;5054168;28;19913;-64
2022/08/13 01:06:50;;;;;;;;;;;;;;;-142.75;100.00;76465.97;5071922;28;19912;-65
2022/08/13 01:09:15;;;;;;;;;;;;;;;-142.75;100.00;76475.81;5054007;28;19912;-65
2022/08/13 01:11:41;;;;;;;;;;;;;;;-142.75;100.00;76475.81;5072013;28;19912;-65
2022/08/13 01:14:07;;;;;;;;;;;;;;;-142.75;100.00;76477.78;5071932;28;20325;-67
2022/08/13 01:16:36;;;;;;;;;;;;;;;-142.75;100.00;76489.59;5071644;28;19970;-65
2022/08/13 01:19:03;;;;;;;;;;;;;;;-142.75;100.00;76495.50;5071897;28;20374;-65
2022/08/13 01:21:32;;;;;;;;;;;;;;;-142.75;100.00;76493.53;5071974;28;19919;-66
2022/08/13 01:23:57;;;;;;;;;;;;;;;-142.75;100.00;76483.69;5054037;28;19916;-64
2022/08/13 01:26:23;;;;;;;;;;;;;;;-142.75;100.00;76473.84;5071833;28;20336;-67
2022/08/13 01:28:50;;;;;;;;;;;;;;;-142.75;100.00;76469.91;5071588;28;19923;-64
2022/08/13 01:31:16;;;;;;;;;;;;;;;-142.75;100.00;76471.88;5071855;28;20348;-65
2022/08/13 01:33:43;;;;;;;;;;;;;;;-142.75;100.00;76467.94;5053887;28;19947;-68
2022/08/13 01:36:08;;;;;;;;;;;;;;;-142.75;100.00;76465.97;5071801;28;20007;-67
2022/08/13 01:38:34;;;;;;;;;;;;;;;-142.75;100.00;76467.94;5071449;28;20358;-65
2022/08/13 01:41:02;;;;;;;;;;;;;;;-142.75;100.00;76475.81;5071750;28;19920;-66
2022/08/13 01:43:30;;;;;;;;;;;;;;;-142.75;100.00;76460.06;5073636;28;19924;-64
2022/08/13 01:45:56;;;;;;;;;;;;;;;-142.75;100.00;76452.19;5075460;28;20369;-64
2022/08/13 01:51:13;;;;;;;;;;;;;;;-142.75;100.00;76448.25;5075799;28;19935;-64
2022/08/13 01:53:39;;;;;;;;;;;;;;;-142.75;100.00;76438.41;5075277;28;19912;-65
2022/08/13 01:56:04;;;;;;;;;;;;;;;-142.75;100.00;76440.38;5075316;28;19919;-64
2022/08/13 01:58:29;;;;;;;;;;;;;;;-142.75;100.00;76438.41;5055393;28;20065;-65
2022/08/13 02:00:57;;;;;;;;;;;;;;;-142.75;100.00;76440.38;5057256;28;20011;-65
2022/08/13 02:03:23;;;;;;;;;;;;;;;-142.75;100.00;76448.25;5075229;28;20302;-65
2022/08/13 02:05:48;;;;;;;;;;;;;;;-142.75;100.00;76450.22;5057168;28;19913;-65
2022/08/13 02:08:17;;;;;;;;;;;;;;;-142.75;100.00;76444.31;5074660;28;19970;-67
2022/08/13 02:10:44;;;;;;;;;;;;;;;-142.75;100.00;76454.16;5075046;28;19904;-65
2022/08/13 02:13:11;;;;;;;;;;;;;;;-142.75;100.00;76446.28;5057143;28;20011;-65
2022/08/13 02:15:36;;;;;;;;;;;;;;;-142.75;100.00;76460.06;5074904;28;19912;-68
2022/08/13 02:18:03;;;;;;;;;;;;;;;-142.75;100.00;76483.69;5074514;28;19916;-64
2022/08/13 02:20:34;;;;;;;;;;;;;;;-142.75;100.00;76487.63;5074920;28;19912;-65
2022/08/13 02:22:59;;;;;;;;;;;;;;;-142.75;100.00;76487.63;5074858;28;20289;-66
2022/08/13 02:25:26;;;;;;;;;;;;;;;-142.75;100.00;76505.34;5074835;28;19913;-67
2022/08/13 02:27:55;;;;;;;;;;;;;;;-142.75;100.00;76505.34;5074511;28;19917;-65
2022/08/13 02:30:21;;;;;;;;;;;;;;;-142.75;100.00;76507.31;5074719;28;19912;-64
2022/08/13 02:32:47;;;;;;;;;;;;;;;-142.75;100.00;76503.38;5074704;28;19919;-64
2022/08/13 02:35:15;;;;;;;;;;;;;;;-142.75;100.00;76511.25;5074508;28;19912;-65
2022/08/13 02:37:41;;;;;;;;;;;;;;;-142.75;100.00;76534.84;5074233;28;19916;-65
2022/08/13 02:41:38;;;;;;;;;;;;;;;-142.75;100.00;76532.88;5074457;28;20480;-65
2022/08/13 02:42:53;;;;;;;;;;;;;;;-142.75;100.00;76532.88;5074226;28;19919;-64
2022/08/13 02:45:20;;;;;;;;;;;;;;;-142.75;100.00;76538.78;5074430;28;19912;-68
2022/08/13 02:47:45;;;;;;;;;;;;;;;-142.75;100.00;76542.72;5073991;28;20378;-65
2022/08/13 02:50:10;;;;;;;;;;;;;;;-142.75;100.00;76550.59;5074305;28;19918;-67
2022/08/13 02:52:36;;;;;;;;;;;;;;;-142.75;100.00;76548.63;5074311;28;20562;-65
2022/08/13 02:55:01;;;;;;;;;;;;;;;-142.75;100.00;76554.53;5073037;28;19991;-64
2022/08/13 02:57:27;;;;;;;;;;;;;;;-142.75;100.00;76572.25;5073755;28;19920;-64
2022/08/13 02:59:52;;;;;;;;;;;;;;;-142.75;100.00;76570.28;5073998;28;20294;-64
2022/08/13 03:02:18;;;;;;;;;;;;;;;-142.75;100.00;76572.25;5074155;28;20301;-65
2022/08/13 03:04:44;;;;;;;;;;;;;;;-142.75;100.00;76574.22;5074188;28;19917;-64
2022/08/13 03:07:09;;;;;;;;;;;;;;;-142.75;100.00;76586.03;5073763;28;20057;-64
2022/08/13 03:09:36;;;;;;;;;;;;;;;-142.75;100.00;76591.94;5073977;28;20387;-65
2022/08/13 03:12:03;;;;;;;;;;;;;;;-142.75;100.00;76601.78;5073903;28;19912;-64
2022/08/13 03:14:31;;;;;;;;;;;;;;;-142.75;100.00;76613.59;5073727;28;20012;-67
2022/08/13 03:16:56;;;;;;;;;;;;;;;-142.75;100.00;76625.41;5073359;28;19917;-64
2022/08/13 03:19:21;;;;;;;;;;;;;;;-142.75;100.00;76641.16;5073963;28;19936;-65
2022/08/13 03:21:49;;;;;;;;;;;;;;;-142.75;100.00;76643.13;5073670;28;19923;-64
2022/08/13 03:24:19;;;;;;;;;;;;;;;-142.75;100.00;76660.84;5073733;28;20361;-67
2022/08/13 03:26:44;;;;;;;;;;;;;;;-142.75;100.00;76664.78;5073434;28;20372;-65
2022/08/13 03:29:10;;;;;;;;;;;;;;;-142.75;100.00;76666.75;5053992;28;19951;-66
2022/08/13 03:31:35;;;;;;;;;;;;;;;-142.75;100.00;76676.59;5073526;28;19916;-64
2022/08/13 03:34:01;;;;;;;;;;;;;;;-142.75;100.00;76678.56;5055504;28;20302;-64
2022/08/13 03:36:27;;;;;;;;;;;;;;;-142.75;100.00;76680.53;5073279;28;20340;-64
2022/08/13 03:38:52;;;;;;;;;;;;;;;-142.75;100.00;76672.66;5073101;28;19912;-65
2022/08/13 03:41:18;;;;;;;;;;;;;;;-142.75;100.00;76674.63;5055464;28;19913;-64
2022/08/13 03:43:45;;;;;;;;;;;;;;;-142.75;100.00;76676.59;5073220;28;19934;-64
2022/08/13 03:46:11;;;;;;;;;;;;;;;-142.75;100.00;76680.53;5073251;28;19918;-65
2022/08/13 03:48:38;;;;;;;;;;;;;;;-142.75;100.00;76684.47;5057582;28;19924;-65
2022/08/13 03:51:03;;;;;;;;;;;;;;;-142.75;100.00;76684.47;5083567;28;19912;-65
2022/08/13 03:53:29;;;;;;;;;;;;;;;-142.75;100.00;76682.50;5082760;28;20421;-67
2022/08/13 03:55:58;;;;;;;;;;;;;;;-142.75;100.00;76682.50;5081989;28;19912;-66
2022/08/13 04:00:49;;;;;;;;;;;;;;;-142.75;100.00;76684.47;5052465;22;20024;-68
2022/08/13 04:03:16;;;;;;;;;;;;;;;-142.75;100.00;76686.44;5030992;28;19917;-67
2022/08/13 04:05:41;;;;;;;;;;;;;;;-142.75;100.00;76688.41;5032116;28;19913;-68
2022/08/13 04:08:07;;;;;;;;;;;;;;;-142.75;100.00;76692.34;5032197;28;19917;-68
2022/08/13 04:10:33;;;;;;;;;;;;;;;-142.75;100.00;76678.56;5014621;28;19956;-68
2022/08/13 04:12:58;;;;;;;;;;;;;;;-142.75;100.00;76688.41;5032792;28;19913;-68
2022/08/13 04:15:24;;;;;;;;;;;;;;;-142.75;100.00;76676.59;5032685;28;20028;-68
2022/08/13 04:17:49;;;;;;;;;;;;;;;-142.75;100.00;76686.44;5032394;28;19921;-68
2022/08/13 04:20:14;;;;;;;;;;;;;;;-142.75;100.00;76706.13;5032616;28;20279;-68
2022/08/13 04:22:39;;;;;;;;;;;;;;;-142.75;100.00;76692.34;5032668;28;19913;-69
2022/08/13 04:25:09;;;;;;;;;;;;;;;-142.75;100.00;76690.38;5014916;28;19921;-68
2022/08/13 04:27:35;;;;;;;;;;;;;;;-142.75;100.00;76692.34;5032226;28;19913;-68
2022/08/13 04:30:01;;;;;;;;;;;;;;;-142.75;100.00;76692.34;5032427;28;20417;-68
2022/08/13 04:32:26;;;;;;;;;;;;;;;-142.75;100.00;76708.09;5014472;28;19917;-68
2022/08/13 04:34:52;;;;;;;;;;;;;;;-142.75;100.00;76704.16;5032510;28;19913;-68
2022/08/13 04:37:17;;;;;;;;;;;;;;;-142.75;100.00;76704.16;5032078;28;19927;-68
2022/08/13 04:39:43;;;;;;;;;;;;;;;-142.75;100.00;76700.22;5032322;28;19935;-68
2022/08/13 04:42:08;;;;;;;;;;;;;;;-142.75;100.00;76700.22;5032327;28;20004;-66
2022/08/13 04:44:34;;;;;;;;;;;;;;;-142.75;100.00;76688.41;5034285;28;19920;-68
2022/08/13 04:46:59;;;;;;;;;;;;;;;-142.75;100.00;76688.41;5014304;28;19920;-68
2022/08/13 04:49:24;;;;;;;;;;;;;;;-142.75;100.00;76688.41;5013997;28;20354;-67
2022/08/13 04:51:49;;;;;;;;;;;;;;;-142.75;100.00;76692.34;5031599;28;19955;-69
2022/08/13 04:54:15;;;;;;;;;;;;;;;-142.75;100.00;76696.28;5014053;28;20398;-66
2022/08/13 04:56:40;;;;;;;;;;;;;;;-142.75;100.00;76684.47;5013723;28;19924;-69
2022/08/13 04:59:05;;;;;;;;;;;;;;;-142.75;100.00;76694.31;5030099;28;19917;-67
2022/08/13 05:01:30;;;;;;;;;;;;;;;-142.75;100.00;76696.28;4996916;28;19917;-68
2022/08/13 05:03:56;;;;;;;;;;;;;;;-142.75;100.00;76700.22;5018598;28;20022;-67
2022/08/13 05:06:21;;;;;;;;;;;;;;;-142.75;100.00;76690.38;5029471;28;19913;-68
2022/08/13 05:08:48;;;;;;;;;;;;;;;-142.75;100.00;76682.50;5028067;28;19967;-68
2022/08/13 05:11:14;;;;;;;;;;;;;;;-142.75;100.00;76670.69;5018935;28;19917;-67
2022/08/13 05:13:40;;;;;;;;;;;;;;;-142.75;100.00;76654.94;5027815;28;19920;-68
2022/08/13 05:16:07;;;;;;;;;;;;;;;-142.75;100.00;76647.06;5029878;28;19920;-68
2022/08/13 05:18:33;;;;;;;;;;;;;;;-142.75;100.00;76633.28;5030863;28;19983;-68
2022/08/13 05:21:03;;;;;;;;;;;;;;;-142.75;100.00;76623.44;5020059;28;19913;-68
2022/08/13 05:23:29;;;;;;;;;;;;;;;-142.75;100.00;76597.84;5031155;28;20271;-68
2022/08/13 05:25:54;;;;;;;;;;;;;;;-142.75;100.00;76576.19;5026831;28;19920;-69
2022/08/13 05:28:20;;;;;;;;;;;;;;;-142.75;100.00;76558.47;5034517;28;19913;-68
2022/08/13 05:30:48;;;;;;;;;;;;;;;-142.75;100.00;76528.97;5033976;28;20421;-68
2022/08/13 05:33:21;;;;;;;;;;;;;;;-142.75;100.00;76507.31;5035236;28;19983;-67
2022/08/13 05:35:48;;;;;;;;;;;;;;;-142.75;100.00;76475.81;5017612;28;19948;-68
2022/08/13 05:38:15;;;;;;;;;;;;;;;-142.75;100.00;76444.31;5034839;28;19917;-67
2022/08/13 05:40:41;;;;;;;;;;;;;;;-142.75;100.00;76428.56;5035465;28;19952;-69
2022/08/13 05:43:14;;;;;;;;;;;;;;;-142.75;100.00;76399.03;5035639;28;19972;-68
2022/08/13 05:45:41;;;;;;;;;;;;;;;-142.75;100.00;76377.38;5035791;28;19920;-68
2022/08/13 05:48:06;;;;;;;;;;;;;;;-142.75;100.00;76349.81;5035208;28;19975;-67
2022/08/13 05:50:33;;;;;;;;;;;;;;;-142.75;100.00;76316.38;5017752;28;19917;-69
2022/08/13 05:53:05;;;;;;;;;;;;;;;-142.75;100.00;76298.66;5035489;28;19967;-69
2022/08/13 05:55:31;;;;;;;;;;;;;;;-142.75;100.00;76273.06;5035417;28;19960;-69
2022/08/13 05:57:57;;;;;;;;;;;;;;;-142.75;100.00;76251.41;5034971;28;19952;-69
2022/08/13 06:05:54;;;;;;;;;;;;;;;-142.75;100.00;76206.13;5035187;28;19959;-69
2022/08/13 06:08:26;;;;;;;;;;;;;;;-142.75;100.00;76188.44;5034837;28;19913;-68
2022/08/13 06:10:52;;;;;;;;;;;;;;;-142.75;100.00;76172.69;5035218;28;19984;-69
2022/08/13 06:13:17;;;;;;;;;;;;;;;-142.75;100.00;76160.88;5017640;28;20379;-69
2022/08/13 06:15:43;;;;;;;;;;;;;;;-142.75;100.00;76137.25;5035045;28;19967;-69
2022/08/13 06:18:09;;;;;;;;;;;;;;;-142.75;100.00;76117.56;5034578;28;19928;-69
2022/08/13 06:20:34;;;;;;;;;;;;;;;-142.75;100.00;76117.56;5017204;28;19921;-69
2022/08/13 06:23:00;;;;;;;;;;;;;;;-142.75;100.00;76099.84;5034898;28;19913;-70
2022/08/13 06:25:27;;;;;;;;;;;;;;;-142.75;100.00;76088.03;5034887;28;19913;-70
2022/08/13 06:27:52;;;;;;;;;;;;;;;-142.75;100.00;76078.19;5034508;28;19936;-69
2022/08/13 06:30:18;;;;;;;;;;;;;;;-142.75;100.00;76060.50;5034442;28;20371;-69
2022/08/13 06:32:44;;;;;;;;;;;;;;;-142.75;100.00;76050.66;5034698;28;19955;-68
2022/08/13 06:35:09;;;;;;;;;;;;;;;-142.75;100.00;76034.91;5034719;28;20375;-69
2022/08/13 06:37:34;;;;;;;;;;;;;;;-142.75;100.00;76029.00;5034085;28;19923;-70
2022/08/13 06:40:00;;;;;;;;;;;;;;;-142.75;100.00;76019.16;5016888;28;20012;-69
2022/08/13 06:42:26;;;;;;;;;;;;;;;-142.75;100.00;76005.38;5034615;28;20008;-69
2022/08/13 06:44:52;;;;;;;;;;;;;;;-142.75;100.00;75999.47;5034503;28;19944;-69
2022/08/13 06:47:17;;;;;;;;;;;;;;;-142.75;100.00;75991.59;5034092;28;19971;-70
2022/08/13 06:49:43;;;;;;;;;;;;;;;-142.75;100.00;75971.91;5034377;28;19952;-69
2022/08/13 06:52:08;;;;;;;;;;;;;;;-142.75;100.00;75952.25;5016634;28;19920;-69
2022/08/13 06:54:33;;;;;;;;;;;;;;;-142.75;100.00;75924.69;5034325;28;19913;-68
2022/08/13 06:56:59;;;;;;;;;;;;;;;-142.75;100.00;75897.13;5033994;28;19917;-70
2022/08/13 06:59:25;;;;;;;;;;;;;;;-142.75;100.00;75881.38;5032518;28;20371;-69
2022/08/13 07:01:57;;;;;;;;;;;;;;;-142.75;100.00;75865.63;5016369;28;19913;-70
2022/08/13 07:04:25;;;;;;;;;;;;;;;-142.75;100.00;75861.69;5016413;28;20375;-70
2022/08/13 07:06:54;;;;;;;;;;;;;;;-142.75;100.00;75853.84;5033774;28;19913;-71
2022/08/13 07:09:20;;;;;;;;;;;;;;;-142.75;100.00;75838.09;5034065;28;19964;-70
2022/08/13 07:11:46;;;;;;;;;;;;;;;-142.75;99.37;75824.31;5016314;28;19913;-70
2022/08/13 07:14:13;;;;;;;;;;;;;;;-142.75;98.98;75806.59;5016047;28;19920;-69
2022/08/13 07:16:39;;;;;;;;;;;;;;;-142.75;99.14;75792.81;5033465;28;20374;-70
2022/08/13 07:19:05;;;;;;;;;;;;;;;-142.75;100.00;75771.16;5033681;28;19920;-69
2022/08/13 07:21:31;;;;;;;;;;;;;;;-142.75;98.39;75763.28;5033756;28;19913;-70
2022/08/13 07:23:57;;;;;;;;;;;;;;;-142.75;92.06;75745.59;5033764;28;19920;-69
2022/08/13 07:26:27;;;;;;;;;;;;;;;-142.75;90.43;75727.88;5033705;28;19913;-69
2022/08/13 07:28:52;;;;;;;;;;;;;;;-142.75;89.20;75721.97;5031800;28;20014;-70
2022/08/13 07:31:19;;;;;;;;;;;;;;;-142.75;91.19;75712.13;5033550;28;19991;-69
2022/08/13 07:33:49;;;;;;;;;;;;;;;-142.75;87.34;75690.47;5033596;28;19917;-68
2022/08/13 07:36:14;;;;;;;;;;;;;;;-142.75;89.03;75684.56;5015708;28;19967;-69
2022/08/13 07:38:41;;;;;;;;;;;;;;;-142.75;88.01;75666.88;5033109;28;19921;-67
2022/08/13 07:41:10;;;;;;;;;;;;;;;-142.75;86.77;75645.22;5032773;28;19920;-70
2022/08/13 07:43:36;;;;;;;;;;;;;;;-142.75;86.68;75633.41;5033336;28;19913;-67
2022/08/13 07:46:05;;;;;;;;;;;;;;;-142.75;91.21;75609.78;5033334;28;19913;-68
2022/08/13 07:48:31;;;;;;;;;;;;;;;-142.75;83.16;75594.06;5032949;28;19913;-68
2022/08/13 07:50:57;;;;;;;;;;;;;;;-142.75;83.29;75576.34;5033183;28;20444;-70
2022/08/13 07:53:23;;;;;;;;;;;;;;;-142.75;82.18;75558.63;5033220;28;19960;-69
2022/08/13 07:55:49;;;;;;;;;;;;;;;-142.75;80.26;75529.09;5033142;28;19917;-70
2022/08/13 07:58:15;;;;;;;;;;;;;;;-142.75;77.94;75529.09;5032646;28;19985;-70
2022/08/13 08:00:40;;;;;;;;;;;;;;;-142.75;77.50;75527.13;5031551;28;20066;-69
2022/08/13 08:03:06;;;;;;;;;;;;;;;-142.75;78.84;75533.03;5015307;28;19956;-70
2022/08/13 08:05:33;;;;;;;;;;;;;;;-142.75;81.49;75511.41;5029395;28;19995;-70
2022/08/13 08:08:00;;;;;;;;;;;;;;;-142.75;74.73;75487.78;5032742;28;19912;-70
2022/08/13 08:10:25;;;;;;;;;;;;;;;-142.75;77.80;75466.13;5032867;28;19913;-69
2022/08/13 08:12:50;;;;;;;;;;;;;;;-142.75;74.57;75446.44;5015094;28;20371;-69
2022/08/13 08:15:16;;;;;;;;;;;;;;;-142.75;73.73;75413.00;5026249;28;19978;-70
2022/08/13 08:17:42;;;;;;;;;;;;;;;-142.75;68.65;75432.69;5015689;28;19924;-70
2022/08/13 08:20:08;;;;;;;;;;;;;;;-142.75;70.15;75422.84;5031925;28;19917;-70
2022/08/13 08:22:34;;;;;;;;;;;;;;;-142.75;71.96;75420.88;5006559;28;20326;-70
2022/08/13 08:25:01;;;;;;;;;;;;;;;-142.75;70.60;75414.97;5027912;28;19917;-68
2022/08/13 08:27:26;;;;;;;;;;;;;;;-142.75;70.17;75407.09;5018337;28;19941;-70
2022/08/13 08:29:52;;;;;;;;;;;;;;;-142.75;67.35;75405.13;5026789;28;20326;-71
2022/08/13 08:32:18;;;;;;;;;;;;;;;-142.75;71.47;75383.47;5026675;28;20387;-70
2022/08/13 08:34:45;;;;;;;;;;;;;;;-142.75;69.96;75334.28;5011324;28;19920;-70
2022/08/13 08:43:00;;;;;;;;;;;;;;;-142.75;67.44;75285.09;5020293;28;20433;-71
2022/08/13 08:45:25;;;;;;;;;;;;;;;-142.75;66.04;75265.41;5030497;28;19913;-70
2022/08/13 08:47:52;;;;;;;;;;;;;;;-142.75;66.64;75239.81;5026873;28;19921;-70
2022/08/13 08:50:22;;;;;;;;;;;;;;;-142.75;66.04;75235.88;5024832;28;19937;-69
2022/08/13 08:55:37;;;;;;;;;;;;;;;-142.75;63.85;75149.31;5024492;28;19920;-68
2022/08/13 08:58:04;;;;;;;;;;;;;;;-142.75;63.67;75141.44;5010047;28;20421;-70
2022/08/13 09:00:30;;;;;;;;;;;;;;;-142.75;62.71;75098.16;5030527;28;20110;-70
2022/08/13 09:02:56;;;;;;;;;;;;;;;-142.75;60.93;75076.50;5009633;28;20402;-71
2022/08/13 09:05:25;;;;;;;;;;;;;;;-142.75;60.97;75058.78;5012137;28;19913;-69
2022/08/13 09:07:50;;;;;;;;;;;;;;;-142.75;62.35;75098.16;5026232;28;19914;-69
2022/08/13 09:10:17;;;;;;;;;;;;;;;-142.75;60.77;75086.34;5028886;28;19913;-70
2022/08/13 09:12:44;;;;;;;;;;;;;;;-142.75;60.41;75104.03;5031553;28;19913;-69
2022/08/13 09:15:13;;;;;;;;;;;;;;;-142.75;59.86;75070.59;5025079;28;19913;-69
2022/08/13 09:17:39;;;;;;;;;;;;;;;-142.75;60.09;75062.72;5028560;28;19992;-70
2022/08/13 09:20:06;;;;;;;;;;;;;;;-142.75;60.29;75027.31;5031009;28;20390;-70
2022/08/13 09:22:32;;;;;;;;;;;;;;;-142.75;63.22;74999.75;5023652;28;19960;-70
2022/08/13 09:24:58;;;;;;;;;;;;;;;-142.75;58.04;74987.94;5026834;28;19918;-69
2022/08/13 09:27:26;;;;;;;;;;;;;;;-142.75;59.46;74956.47;5029075;28;19913;-70
2022/08/13 09:29:51;;;;;;;;;;;;;;;-142.75;56.80;74954.50;5025722;28;19914;-70
2022/08/13 09:32:16;;;;;;;;;;;;;;;-142.75;57.50;74932.84;5028437;28;19924;-70
2022/08/13 09:34:44;;;;;;;;;;;;;;;-142.75;55.10;74905.31;5030864;28;19931;-70
2022/08/13 09:37:09;;;;;;;;;;;;;;;-142.75;55.89;74883.66;5027116;28;19917;-69
2022/08/13 09:39:50;;;;;;;;;;;;;;;-142.75;52.65;74915.16;5029910;28;19913;-70
2022/08/13 09:42:18;;;;;;;;;;;;;;;-142.75;50.74;74893.50;5026502;28;19920;-70
2022/08/13 09:44:44;;;;;;;;;;;;;;;-142.75;52.72;74928.91;5029086;28;19913;-70
2022/08/13 09:47:10;;;;;;;;;;;;;;;-142.75;53.56;74944.66;5022708;28;19913;-70
2022/08/13 09:49:36;;;;;;;;;;;;;;;-142.75;54.70;74923.03;5012919;28;19924;-67
2022/08/13 09:52:01;;;;;;;;;;;;;;;-142.75;51.71;74877.75;5027395;28;19913;-67
2022/08/13 09:54:26;;;;;;;;;;;;;;;-142.75;51.53;74885.63;5029706;28;20004;-67
2022/08/13 09:56:52;;;;;;;;;;;;;;;-142.75;49.82;74903.34;5009152;28;19917;-69
2022/08/13 09:59:19;;;;;;;;;;;;;;;-142.75;52.03;74921.06;5011320;28;20015;-69
2022/08/13 10:01:45;;;;;;;;;;;;;;;-142.75;51.23;74928.91;5013882;28;20415;-70
2022/08/13 10:04:11;;;;;;;;;;;;;;;-142.75;51.75;74907.28;5013630;28;19956;-68
2022/08/13 10:06:38;;;;;;;;;;;;;;;-142.75;51.08;74897.44;5014343;28;19940;-68
2022/08/13 10:09:03;;;;;;;;;;;;;;;-142.75;52.75;74881.69;4997081;28;19921;-69
2022/08/13 10:11:29;;;;;;;;;;;;;;;-142.75;49.52;74858.09;5051922;22;19935;-67
2022/08/13 10:13:54;;;;;;;;;;;;;;;-142.75;48.83;74836.44;5016183;28;20004;-68
2022/08/13 10:16:20;;;;;;;;;;;;;;;-142.75;48.84;74832.50;5035240;28;19995;-68
2022/08/13 10:18:46;;;;;;;;;;;;;;;-142.75;51.76;74838.41;5017641;28;19924;-68
2022/08/13 10:21:11;;;;;;;;;;;;;;;-142.75;52.10;74824.63;5014984;28;20327;-67
2022/08/13 10:23:36;;;;;;;;;;;;;;;-142.75;51.00;74789.22;5031302;28;19997;-67
2022/08/13 10:26:01;;;;;;;;;;;;;;;-142.75;48.37;74779.38;5017016;28;19981;-67
2022/08/13 10:28:28;;;;;;;;;;;;;;;-142.75;50.12;74775.44;5028044;28;19917;-68
2022/08/13 10:30:54;;;;;;;;;;;;;;;-142.75;48.94;74781.34;5017461;28;20400;-68
2022/08/13 10:33:20;;;;;;;;;;;;;;;-142.75;49.51;74775.44;5015393;28;20404;-68
2022/08/13 10:35:52;;;;;;;;;;;;;;;-142.75;52.40;74763.63;5035259;28;20112;-68
2022/08/13 10:38:19;;;;;;;;;;;;;;;-142.75;47.59;74722.31;5015112;28;20378;-67
2022/08/13 10:40:44;;;;;;;;;;;;;;;-142.75;49.50;74696.75;5035028;28;19919;-68
2022/08/13 10:43:10;;;;;;;;;;;;;;;-142.75;48.06;74692.81;5034773;28;20004;-68
2022/08/13 10:45:36;;;;;;;;;;;;;;;-142.75;46.10;74637.72;5035016;28;19913;-68
2022/08/13 10:48:01;;;;;;;;;;;;;;;-142.75;44.67;74629.84;5033918;28;19924;-68
2022/08/13 10:50:30;;;;;;;;;;;;;;;-142.75;43.29;74635.75;5021631;28;19920;-68
2022/08/13 10:52:56;;;;;;;;;;;;;;;-142.75;44.73;74659.34;5055298;28;19917;-68
2022/08/13 10:55:22;;;;;;;;;;;;;;;-142.75;43.25;74645.59;5037250;28;19913;-68
2022/08/13 10:57:48;;;;;;;;;;;;;;;-142.75;41.54;74610.16;5055079;28;19974;-68
2022/08/13 11:00:14;;;;;;;;;;;;;;;-142.75;41.54;74584.59;5055229;28;20333;-68
2022/08/13 11:02:39;;;;;;;;;;;;;;;-142.75;42.82;74578.69;5054915;28;19919;-68
2022/08/13 11:05:06;;;;;;;;;;;;;;;-142.75;41.11;74537.38;5055168;28;19913;-68
2022/08/13 11:07:34;;;;;;;;;;;;;;;-142.75;41.78;74560.97;5054107;28;20214;-68
2022/08/13 11:09:59;;;;;;;;;;;;;;;-142.75;39.61;74572.78;5055077;28;19913;-68
2022/08/13 11:12:25;;;;;;;;;;;;;;;-142.75;40.05;74559.00;5054477;28;20579;-68
2022/08/13 11:14:50;;;;;;;;;;;;;;;-142.75;40.97;74553.13;5054167;28;19920;-68
2022/08/13 11:17:17;;;;;;;;;;;;;;;-142.75;40.28;74580.66;5053861;28;20027;-68
2022/08/13 11:19:45;;;;;;;;;;;;;;;-142.75;37.92;74582.63;5054800;28;19913;-68
2022/08/13 11:22:10;;;;;;;;;;;;;;;-142.75;36.77;74519.66;5054740;28;19913;-68
2022/08/13 11:24:36;;;;;;;;;;;;;;;-142.75;37.96;74515.72;5037780;28;19919;-68
2022/08/13 11:27:01;;;;;;;;;;;;;;;-142.75;38.51;74564.91;5054507;28;19963;-69
2022/08/13 11:29:26;;;;;;;;;;;;;;;-142.75;37.85;74560.97;5054600;28;20263;-68
2022/08/13 11:31:51;;;;;;;;;;;;;;;-142.75;37.94;74553.13;5054716;28;19913;-68
2022/08/13 11:34:17;;;;;;;;;;;;;;;-142.75;36.96;74566.88;5054558;28;19916;-68
2022/08/13 11:36:42;;;;;;;;;;;;;;;-142.75;35.71;74553.13;5053950;28;19966;-68
2022/08/13 11:39:07;;;;;;;;;;;;;;;-142.75;35.85;74541.31;5054309;28;19917;-68
2022/08/13 11:41:32;;;;;;;;;;;;;;;-142.75;38.91;74539.34;5053046;28;19923;-66
2022/08/13 11:43:58;;;;;;;;;;;;;;;-142.75;38.02;74537.38;5031283;28;19924;-68
2022/08/13 11:46:23;;;;;;;;;;;;;;;-142.75;37.11;74521.63;5023425;28;20361;-67
2022/08/13 11:48:49;;;;;;;;;;;;;;;-142.75;37.20;74476.38;5047953;28;19917;-66
2022/08/13 11:51:14;;;;;;;;;;;;;;;-142.75;36.47;74496.06;5053753;28;19975;-68
2022/08/13 11:53:39;;;;;;;;;;;;;;;-142.75;35.49;74446.88;5054496;28;19913;-67
2022/08/13 11:56:04;;;;;;;;;;;;;;;-142.75;34.71;74446.88;5054110;28;19913;-67
2022/08/13 11:58:31;;;;;;;;;;;;;;;-142.75;35.58;74452.78;5054410;28;19917;-67
2022/08/13 12:00:56;;;;;;;;;;;;;;;-142.75;34.16;74464.56;5053850;28;19913;-67
2022/08/13 12:03:21;;;;;;;;;;;;;;;-142.75;31.66;74464.56;5053854;28;19924;-67
2022/08/13 12:05:47;;;;;;;;;;;;;;;-142.75;31.09;74476.38;5053916;28;19971;-67
2022/08/13 12:08:16;;;;;;;;;;;;;;;-142.75;31.71;74482.28;5054562;28;20396;-66
2022/08/13 12:10:41;;;;;;;;;;;;;;;-142.75;31.07;74476.38;5019742;28;20002;-65
2022/08/13 12:13:06;;;;;;;;;;;;;;;-142.75;33.74;74462.59;5035384;28;19921;-67
2022/08/13 12:15:32;;;;;;;;;;;;;;;-142.75;33.44;74439.00;5032974;28;19995;-66
2022/08/13 12:17:57;;;;;;;;;;;;;;;-142.75;32.10;74399.66;5032467;28;19921;-67
2022/08/13 12:20:23;;;;;;;;;;;;;;;-142.75;30.59;74376.03;5033065;28;19948;-67
2022/08/13 12:22:49;;;;;;;;;;;;;;;-142.75;32.85;74429.16;5033096;28;19968;-67
2022/08/13 12:25:14;;;;;;;;;;;;;;;-142.75;32.21;74476.38;5033255;28;20375;-68
2022/08/13 12:27:40;;;;;;;;;;;;;;;-142.75;32.72;74490.16;5032323;28;19920;-68
2022/08/13 12:30:05;;;;;;;;;;;;;;;-142.75;32.85;74440.97;5032784;28;19913;-68
2022/08/13 12:32:31;;;;;;;;;;;;;;;-142.75;34.48;74397.69;5015050;28;20402;-67
2022/08/13 12:34:56;;;;;;;;;;;;;;;-142.75;31.68;74389.81;5032801;28;19975;-68
2022/08/13 12:37:23;;;;;;;;;;;;;;;-142.75;32.46;74407.53;5032338;28;19924;-67
2022/08/13 12:39:48;;;;;;;;;;;;;;;-142.75;32.30;74397.69;5032626;28;20331;-67